Time;durP1;ratioP1;P1;durP2;ratioP2;P2;SDS_P1;SDS_P2;PMS_P1;PMS_P2;Temp;Humidity;BMP_temperature;BMP_pressure;BME280_temperature;BME280_humidity;BME280_pressure;Samples;Min_cycle;Max_cycle;Signal;HPM_P1;HPM_P2
2022/05/29 00:02:01;;;;;;;4.20;1.60;;;;;;;10.67;100.00;98468.25;5034171;28;20543;-66
2022/05/29 00:04:26;;;;;;;4.95;1.40;;;;;;;10.85;100.00;98486.53;5033108;28;20160;-67
2022/05/29 00:06:55;;;;;;;2.35;1.45;;;;;;;10.79;100.00;98484.66;5027997;28;20040;-67
2022/05/29 00:09:31;;;;;;;2.90;1.35;;;;;;;10.83;100.00;98485.91;5031300;28;20036;-67
2022/05/29 00:12:02;;;;;;;2.88;1.42;;;;;;;10.91;100.00;98482.97;5027241;28;20141;-66
2022/05/29 00:14:28;;;;;;;2.28;1.40;;;;;;;10.96;100.00;98480.44;5032263;28;20029;-66
2022/05/29 00:16:53;;;;;;;5.43;1.58;;;;;;;10.99;100.00;98485.44;5025354;28;20117;-67
2022/05/29 00:19:19;;;;;;;4.05;1.60;;;;;;;10.88;100.00;98450.91;5035124;28;20060;-66
2022/05/29 00:21:45;;;;;;;5.80;1.40;;;;;;;11.01;100.00;98474.41;5033314;28;20025;-67
2022/05/29 00:24:10;;;;;;;3.63;1.50;;;;;;;11.04;100.00;98477.50;5031967;28;20033;-67
2022/05/29 00:26:35;;;;;;;5.30;1.55;;;;;;;10.98;100.00;98470.25;5028519;28;20021;-67
2022/05/29 00:29:01;;;;;;;3.50;1.30;;;;;;;10.95;100.00;98468.78;5035714;28;20021;-67
2022/05/29 00:31:26;;;;;;;4.22;1.40;;;;;;;11.05;100.00;98473.72;5045754;28;20479;-66
2022/05/29 00:33:52;;;;;;;5.03;1.65;;;;;;;10.94;100.00;98475.22;5048121;28;20053;-67
2022/05/29 00:36:18;;;;;;;3.80;1.42;;;;;;;10.92;100.00;98462.97;5041731;28;20036;-66
2022/05/29 00:38:46;;;;;;;2.63;1.10;;;;;;;10.83;100.00;98439.91;5048557;28;20048;-66
2022/05/29 00:41:18;;;;;;;3.30;1.13;;;;;;;10.98;100.00;98470.25;5048979;28;20028;-67
2022/05/29 00:44:17;;;;;;;3.45;1.30;;;;;;;10.98;100.00;98467.53;5049804;28;20029;-67
2022/05/29 00:46:50;;;;;;;1.85;0.80;;;;;;;11.03;100.00;98470.44;5046067;28;20045;-66
2022/05/29 00:49:18;;;;;;;4.93;1.38;;;;;;;11.07;100.00;98470.81;5046755;28;20059;-66
2022/05/29 00:51:50;;;;;;;3.15;1.10;;;;;;;11.14;97.51;98463.50;5040491;28;20403;-67
2022/05/29 00:54:16;;;;;;;1.90;0.90;;;;;;;11.22;100.00;98468.66;5034301;28;20030;-66
2022/05/29 00:56:42;;;;;;;4.20;1.45;;;;;;;11.26;100.00;98464.47;5030649;28;20037;-66
2022/05/29 00:59:13;;;;;;;5.25;1.10;;;;;;;11.23;100.00;98470.31;5028145;28;20396;-66
2022/05/29 01:01:39;;;;;;;4.47;1.30;;;;;;;11.17;100.00;98472.03;5028849;28;20044;-65
2022/05/29 01:04:05;;;;;;;5.47;1.30;;;;;;;11.08;100.00;98472.47;5023318;28;20033;-66
2022/05/29 01:06:30;;;;;;;3.80;0.98;;;;;;;10.89;100.00;98436.31;5028948;28;20171;-66
2022/05/29 01:08:59;;;;;;;4.45;1.10;;;;;;;10.91;100.00;98472.97;5031113;28;20524;-66
2022/05/29 01:11:42;;;;;;;4.95;1.38;;;;;;;10.88;100.00;98467.16;5027311;28;20030;-66
2022/05/29 01:14:28;;;;;;;4.55;1.40;;;;;;;10.80;100.00;98459.28;5033221;28;20032;-66
2022/05/29 01:17:41;;;;;;;5.50;1.40;;;;;;;10.79;100.00;98453.00;5023925;28;20503;-65
2022/05/29 01:20:12;;;;;;;9.32;1.80;;;;;;;10.69;100.00;98458.06;5022229;28;20075;-64
2022/05/29 01:22:55;;;;;;;2.35;1.20;;;;;;;10.76;100.00;98472.38;5022029;28;20108;-65
2022/05/29 01:25:53;;;;;;;1.58;1.13;;;;;;;10.74;100.00;98464.50;5025639;28;20053;-65
2022/05/29 01:28:33;;;;;;;5.57;1.30;;;;;;;10.51;100.00;98427.09;5030728;28;20479;-66
2022/05/29 01:31:22;;;;;;;2.95;1.48;;;;;;;10.64;100.00;98444.34;5027239;28;20453;-66
2022/05/29 01:33:53;;;;;;;6.13;1.30;;;;;;;10.60;100.00;98453.91;5027390;28;20033;-66
2022/05/29 01:36:32;;;;;;;2.88;1.17;;;;;;;10.57;100.00;98446.22;5028887;28;20367;-66
2022/05/29 01:39:02;;;;;;;4.70;1.17;;;;;;;10.39;100.00;98425.25;5029316;28;20336;-65
2022/05/29 01:41:36;;;;;;;4.18;1.55;;;;;;;10.51;100.00;98437.09;5025319;28;20029;-66
2022/05/29 01:44:22;;;;;;;3.05;1.30;;;;;;;10.48;100.00;98429.41;5031036;28;20037;-66
2022/05/29 01:46:54;;;;;;;3.50;1.20;;;;;;;10.47;100.00;98423.13;5016243;28;20064;-66
2022/05/29 01:49:36;;;;;;;4.25;1.80;;;;;;;10.50;100.00;98424.59;5023798;28;20129;-66
2022/05/29 01:52:07;;;;;;;3.97;1.90;;;;;;;10.30;100.00;98425.47;5032227;28;20059;-65
2022/05/29 01:54:38;;;;;;;3.15;1.60;;;;;;;10.17;100.00;98411.94;5031022;28;20025;-65
2022/05/29 01:57:12;;;;;;;3.80;1.83;;;;;;;10.14;100.00;98409.66;5027869;28;20064;-65
2022/05/29 01:59:59;;;;;;;8.38;1.65;;;;;;;9.92;100.00;98408.22;5029846;28;20037;-65
2022/05/29 02:02:48;;;;;;;3.42;1.70;;;;;;;9.85;100.00;98414.47;5022516;28;20029;-65
2022/05/29 02:05:23;;;;;;;4.47;1.40;;;;;;;9.76;100.00;98413.00;5022803;28;20033;-66
2022/05/29 02:07:54;;;;;;;3.55;1.65;;;;;;;9.75;100.00;98405.94;5030865;28;20033;-66
2022/05/29 02:10:35;;;;;;;4.25;1.50;;;;;;;9.84;100.00;98406.56;5022723;28;20105;-66
2022/05/29 02:13:13;;;;;;;4.53;2.10;;;;;;;9.76;100.00;98407.59;5026748;28;20052;-66
2022/05/29 02:15:48;;;;;;;6.43;1.58;;;;;;;9.75;100.00;98397.03;5026870;28;20075;-65
2022/05/29 02:18:20;;;;;;;4.10;1.33;;;;;;;9.69;100.00;98393.25;5025731;28;20060;-67
2022/05/29 02:20:50;;;;;;;6.22;1.48;;;;;;;9.68;100.00;98391.59;5030557;28;20026;-67
2022/05/29 02:23:30;;;;;;;5.25;1.85;;;;;;;9.48;100.00;98374.56;5026922;28;20025;-66
2022/05/29 02:25:56;;;;;;;;;;;;;;;9.55;100.00;98386.19;5030077;28;20034;-68
2022/05/29 02:28:28;;;;;;;4.13;1.70;;;;;;;9.53;100.00;98386.41;5028610;28;19935;-68
2022/05/29 02:31:19;;;;;;;3.03;1.60;;;;;;;9.44;100.00;98382.25;5028278;28;20032;-66
2022/05/29 02:34:04;;;;;;;1.63;1.20;;;;;;;9.42;100.00;98371.66;5012270;28;20049;-65
2022/05/29 02:36:32;;;;;;;3.80;1.45;;;;;;;9.37;100.00;98374.13;5016231;28;20036;-64
2022/05/29 02:39:31;;;;;;;2.73;1.50;;;;;;;9.37;100.00;98384.94;5026754;28;20083;-65
2022/05/29 02:42:14;;;;;;;3.20;1.55;;;;;;;9.34;100.00;98376.41;5025320;28;20087;-67
2022/05/29 02:44:51;;;;;;;4.60;1.92;;;;;;;9.31;100.00;98379.53;5025058;28;20030;-67
2022/05/29 02:47:27;;;;;;;6.30;1.73;;;;;;;9.07;100.00;98335.06;5028551;28;20112;-66
2022/05/29 02:50:13;;;;;;;3.78;1.60;;;;;;;9.28;100.00;98372.69;5031035;28;20072;-67
2022/05/29 02:52:39;;;;;;;4.30;1.42;;;;;;;9.25;100.00;98359.59;5030344;28;20022;-65
2022/05/29 02:55:05;;;;;;;4.10;1.50;;;;;;;9.26;100.00;98368.53;5033714;28;20024;-67
2022/05/29 02:57:30;;;;;;;3.67;1.60;;;;;;;9.33;100.00;98367.50;5029816;28;20064;-67
2022/05/29 03:00:07;;;;;;;4.22;1.40;;;;;;;9.34;100.00;98352.94;5031811;28;20057;-67
2022/05/29 03:02:54;;;;;;;4.78;1.77;;;;;;;9.38;100.00;98351.50;5017854;28;20109;-70
2022/05/29 03:05:28;;;;;;;3.50;1.50;;;;;;;9.41;100.00;98366.47;5033646;28;20112;-65
2022/05/29 03:07:58;;;;;;;5.80;1.70;;;;;;;9.37;100.00;98367.91;5032914;28;20507;-64
2022/05/29 03:10:32;;;;;;;4.47;1.58;;;;;;;9.17;100.00;98324.72;5027832;28;20394;-65
2022/05/29 03:13:11;;;;;;;2.85;1.48;;;;;;;9.32;100.00;98355.03;5031126;28;20037;-64
2022/05/29 03:16:05;;;;;;;6.07;2.22;;;;;;;9.38;100.00;98356.91;5031094;28;20128;-67
2022/05/29 03:18:46;;;;;;;2.85;1.30;;;;;;;9.41;100.00;98361.88;5028136;28;20092;-65
2022/05/29 03:21:20;;;;;;;6.15;1.45;;;;;;;9.44;100.00;98358.78;5034972;28;20100;-65
2022/05/29 03:23:54;;;;;;;6.40;1.60;;;;;;;9.47;100.00;98349.44;5034839;28;20113;-65
2022/05/29 03:26:57;;;;;;;4.68;1.33;;;;;;;9.52;100.00;98359.63;5029087;28;20072;-66
2022/05/29 03:29:42;;;;;;;2.45;1.27;;;;;;;9.54;100.00;98358.38;5025761;28;20494;-65
2022/05/29 03:32:08;;;;;;;5.72;1.70;;;;;;;9.39;100.00;98323.47;5023534;28;20084;-66
2022/05/29 03:34:33;;;;;;;4.57;1.50;;;;;;;9.55;100.00;98361.91;5034651;28;20067;-66
2022/05/29 03:36:59;;;;;;;3.13;1.13;;;;;;;9.53;100.00;98361.25;5030109;28;20495;-66
2022/05/29 03:39:24;;;;;;;2.30;1.30;;;;;;;9.48;100.00;98347.56;5033814;28;20033;-65
2022/05/29 03:41:52;;;;;;;2.60;1.50;;;;;;;9.48;100.00;98361.06;5033789;28;20025;-67
2022/05/29 03:44:19;;;;;;;3.38;1.35;;;;;;;9.53;100.00;98358.56;5031640;28;20083;-66
2022/05/29 03:46:45;;;;;;;3.85;1.30;;;;;;;9.50;100.00;98361.69;5028818;28;20033;-66
2022/05/29 03:49:12;;;;;;;3.78;1.77;;;;;;;9.37;100.00;98341.72;5033323;28;20033;-65
2022/05/29 03:51:38;;;;;;;3.13;1.52;;;;;;;9.51;100.00;98357.94;5030064;28;20097;-66
2022/05/29 03:54:05;;;;;;;2.63;1.15;;;;;;;9.49;100.00;98360.84;5032146;28;20116;-66
2022/05/29 03:56:31;;;;;;;4.43;1.10;;;;;;;9.54;100.00;98366.47;5030817;28;20300;-66
2022/05/29 03:58:56;;;;;;;7.43;1.55;;;;;;;9.49;100.00;98360.03;5034450;28;20037;-67
2022/05/29 04:01:22;;;;;;;6.50;1.45;;;;;;;9.53;100.00;98363.97;5034998;28;20032;-66
2022/05/29 04:03:47;;;;;;;5.78;1.67;;;;;;;9.49;100.00;98362.75;5031230;28;20046;-67
2022/05/29 04:06:13;;;;;;;5.10;1.60;;;;;;;9.54;100.00;98357.53;5031220;28;20025;-66
2022/05/29 04:14:06;;;;;;;4.47;1.35;;;;;;;9.36;100.00;98333.84;5030839;28;20064;-66
2022/05/29 04:16:32;;;;;;;5.82;1.52;;;;;;;9.49;100.00;98358.16;5026381;28;20463;-66
2022/05/29 04:18:58;;;;;;;4.82;1.70;;;;;;;9.50;100.00;98361.69;5032109;28;20628;-66
2022/05/29 04:21:23;;;;;;;3.97;1.30;;;;;;;9.54;100.00;98352.97;5033205;28;20423;-66
2022/05/29 04:23:49;;;;;;;4.28;1.35;;;;;;;9.59;100.00;98349.66;5026027;28;20030;-67
2022/05/29 04:26:16;;;;;;;5.70;1.38;;;;;;;9.62;100.00;98344.66;5026009;28;20032;-66
2022/05/29 04:28:41;;;;;;;6.97;1.27;;;;;;;9.62;100.00;98341.94;5032265;28;20032;-66
2022/05/29 04:31:07;;;;;;;3.70;1.00;;;;;;;9.52;100.00;98327.22;5028786;28;20021;-66
2022/05/29 04:33:33;;;;;;;3.75;1.20;;;;;;;9.68;100.00;98336.75;5034047;28;20025;-66
2022/05/29 04:35:58;;;;;;;5.50;1.30;;;;;;;9.61;100.00;98342.16;5028440;28;20036;-66
2022/05/29 04:38:24;;;;;;;4.60;1.35;;;;;;;9.60;100.00;98344.03;5032881;28;20043;-66
2022/05/29 04:40:51;;;;;;;3.28;1.35;;;;;;;9.59;100.00;98341.56;5023836;28;20061;-66
2022/05/29 04:43:17;;;;;;;7.80;1.58;;;;;;;9.61;100.00;98342.97;5025607;28;20026;-66
2022/05/29 04:45:44;;;;;;;2.85;1.63;;;;;;;9.58;100.00;98337.16;5028624;28;20018;-66
2022/05/29 04:48:11;;;;;;;5.90;1.75;;;;;;;9.57;100.00;98343.63;5029865;28;20025;-66
2022/05/29 04:50:37;;;;;;;2.92;1.50;;;;;;;9.66;100.00;98339.66;5030289;28;20045;-66
2022/05/29 04:53:03;;;;;;;5.22;1.40;;;;;;;9.61;100.00;98339.44;5033137;28;20060;-66
2022/05/29 04:55:29;;;;;;;4.30;1.73;;;;;;;9.70;100.00;98335.50;5032958;28;20080;-67
2022/05/29 04:57:54;;;;;;;6.82;1.48;;;;;;;9.81;100.00;98348.38;5029903;28;20033;-66
2022/05/29 05:00:20;;;;;;;2.97;1.50;;;;;;;9.83;100.00;98340.06;5027809;28;20498;-66
2022/05/29 05:02:45;;;;;;;3.70;1.58;;;;;;;9.87;100.00;98341.28;5024454;28;20506;-65
2022/05/29 05:05:12;;;;;;;6.53;1.40;;;;;;;9.96;100.00;98329.25;5019680;28;20017;-66
2022/05/29 05:07:37;;;;;;;3.45;1.27;;;;;;;9.95;100.00;98318.63;5025146;28;20025;-65
2022/05/29 05:10:05;;;;;;;4.40;1.20;;;;;;;10.25;100.00;98335.19;5030997;28;20036;-66
2022/05/29 05:12:30;;;;;;;2.33;1.15;;;;;;;10.39;100.00;98338.72;5032496;28;20045;-66
2022/05/29 05:14:55;;;;;;;3.90;1.30;;;;;;;10.51;100.00;98339.72;5027681;28;20061;-67
2022/05/29 05:17:20;;;;;;;6.13;1.02;;;;;;;10.65;100.00;98333.19;5028995;28;20079;-66
2022/05/29 05:19:46;;;;;;;2.72;1.00;;;;;;;10.85;100.00;98332.28;5025512;28;20025;-66
2022/05/29 05:22:11;;;;;;;4.65;1.10;;;;;;;11.12;100.00;98338.34;5032699;28;20026;-67
2022/05/29 05:24:37;;;;;;;3.13;1.23;;;;;;;11.39;100.00;98339.81;5042504;22;20046;-70
2022/05/29 05:27:04;;;;;;;7.40;1.50;;;;;;;11.65;96.53;98335.22;5029702;28;20053;-70
2022/05/29 05:29:30;;;;;;;4.32;1.15;;;;;;;11.86;97.65;98336.72;5030735;28;20108;-70
2022/05/29 05:31:55;;;;;;;3.88;1.05;;;;;;;12.10;94.42;98345.06;5031095;28;20505;-70
2022/05/29 05:34:20;;;;;;;5.97;1.15;;;;;;;12.62;93.50;98348.22;5027935;28;20029;-70
2022/05/29 05:36:46;;;;;;;4.25;1.15;;;;;;;13.14;93.01;98348.56;5030291;28;20033;-70
2022/05/29 05:39:12;;;;;;;3.08;1.10;;;;;;;13.40;94.10;98350.09;5031878;28;20025;-70
2022/05/29 05:41:37;;;;;;;6.20;0.75;;;;;;;13.37;91.61;98339.69;5030416;28;20080;-70
2022/05/29 05:44:03;;;;;;;4.53;0.93;;;;;;;13.35;87.38;98344.53;5020723;28;20387;-71
2022/05/29 05:46:28;;;;;;;5.25;1.30;;;;;;;12.89;88.87;98349.56;5030542;28;20433;-70
2022/05/29 05:48:55;;;;;;;5.10;1.00;;;;;;;12.66;89.90;98347.53;5032141;28;20665;-70
2022/05/29 05:51:20;;;;;;;5.13;1.20;;;;;;;12.45;90.36;98351.56;5020831;28;20029;-70
2022/05/29 05:53:45;;;;;;;4.93;1.30;;;;;;;12.27;92.43;98346.13;5025727;28;20021;-70
2022/05/29 05:56:14;;;;;;;4.65;1.17;;;;;;;12.27;93.55;98346.13;5028969;28;20049;-71
2022/05/29 05:58:42;;;;;;;10.82;1.30;;;;;;;12.28;94.61;98353.19;5031377;28;20032;-70
2022/05/29 06:01:11;;;;;;;3.05;0.77;;;;;;;12.26;93.81;98358.88;5030802;28;20108;-70
2022/05/29 06:03:37;;;;;;;4.25;1.05;;;;;;;12.27;93.23;98340.72;5028791;28;20092;-70
2022/05/29 06:06:02;;;;;;;2.35;0.77;;;;;;;12.20;92.35;98361.63;5030875;28;20029;-70
2022/05/29 06:08:28;;;;;;;3.08;1.00;;;;;;;12.12;91.59;98349.19;5030986;28;20037;-70
2022/05/29 06:10:53;;;;;;;4.97;1.20;;;;;;;12.14;97.63;98363.38;5032533;28;20021;-70
2022/05/29 06:13:18;;;;;;;2.03;0.90;;;;;;;12.25;94.77;98365.34;5031515;28;20087;-70
2022/05/29 06:15:46;;;;;;;3.67;1.10;;;;;;;12.16;99.27;98365.88;5030095;28;20029;-70
2022/05/29 06:18:15;;;;;;;5.35;1.30;;;;;;;11.95;100.00;98361.69;5031258;28;20514;-70
2022/05/29 06:20:41;;;;;;;3.65;1.45;;;;;;;11.97;100.00;98365.00;5030137;28;20514;-70
2022/05/29 06:23:07;;;;;;;2.33;1.00;;;;;;;12.04;100.00;98366.59;5027662;28;20133;-71
2022/05/29 06:25:33;;;;;;;4.47;1.30;;;;;;;12.22;100.00;98364.97;5026279;28;20032;-70
2022/05/29 06:27:58;;;;;;;3.50;1.00;;;;;;;12.35;100.00;98362.09;5018941;28;20033;-74
2022/05/29 06:30:24;;;;;;;6.55;1.30;;;;;;;12.35;100.00;98359.41;5029521;28;20386;-73
2022/05/29 06:32:49;;;;;;;6.93;1.17;;;;;;;12.41;100.00;98361.19;5027781;28;20029;-68
2022/05/29 06:35:15;;;;;;;6.50;1.20;;;;;;;12.48;100.00;98358.41;5028287;28;20785;-71
2022/05/29 06:37:42;;;;;;;4.32;1.15;;;;;;;12.62;100.00;98361.78;5011213;28;20128;-72
2022/05/29 06:40:09;;;;;;;6.25;1.30;;;;;;;12.62;100.00;98357.19;5024902;28;20103;-74
2022/05/29 06:42:35;;;;;;;7.43;1.38;;;;;;;12.59;100.00;98356.81;5030970;28;20394;-72
2022/05/29 06:45:01;;;;;;;4.63;1.20;;;;;;;12.41;100.00;98342.19;5032146;28;20100;-72
2022/05/29 06:47:26;;;;;;;4.50;1.20;;;;;;;12.38;100.00;98360.81;5026603;28;20411;-73
2022/05/29 06:49:52;;;;;;;3.95;1.02;;;;;;;12.51;100.00;98360.66;5027036;28;20025;-72
2022/05/29 06:52:18;;;;;;;3.00;1.10;;;;;;;12.62;100.00;98361.78;5045289;28;20049;-73
2022/05/29 06:54:45;;;;;;;3.65;1.08;;;;;;;12.55;100.00;98363.75;5025032;28;20068;-72
2022/05/29 06:57:12;;;;;;;6.95;1.45;;;;;;;12.64;96.21;98356.97;5025677;28;20033;-74
2022/05/29 07:07:58;;;;;;;5.80;1.30;;;;;;;12.66;95.47;98360.28;5025494;28;20166;-71
2022/05/29 07:10:25;;;;;;;6.05;1.48;;;;;;;12.78;94.08;98363.88;5028187;28;20022;-71
2022/05/29 07:12:51;;;;;;;2.78;1.15;;;;;;;12.79;94.27;98372.88;5029957;28;20037;-73
2022/05/29 07:15:18;;;;;;;3.63;1.05;;;;;;;12.92;95.52;98378.97;5024950;28;20107;-73
2022/05/29 07:17:44;;;;;;;4.97;1.20;;;;;;;13.08;91.82;98371.25;5029865;28;20112;-72
2022/05/29 07:20:10;;;;;;;5.13;1.08;;;;;;;13.23;92.47;98384.38;5030719;28;20116;-71
2022/05/29 07:22:35;;;;;;;4.90;1.15;;;;;;;13.19;93.10;98381.31;5027937;28;20087;-69
2022/05/29 07:25:02;;;;;;;5.35;2.03;;;;;;;13.24;88.43;98380.63;5031032;28;20072;-75
2022/05/29 07:27:27;;;;;;;3.40;1.30;;;;;;;13.33;89.66;98380.06;5028263;28;20096;-73
2022/05/29 07:29:53;;;;;;;3.95;1.55;;;;;;;13.33;90.48;98387.41;5026084;28;20498;-74
2022/05/29 07:32:20;;;;;;;4.25;1.52;;;;;;;13.58;88.99;98384.53;5030759;28;20061;-74
2022/05/29 07:34:46;;;;;;;3.55;1.15;;;;;;;13.79;88.18;98381.25;5030152;28;20386;-71
2022/05/29 07:37:14;;;;;;;5.18;1.20;;;;;;;14.38;80.98;98383.16;5029512;28;20109;-75
2022/05/29 07:39:51;;;;;;;4.10;1.20;;;;;;;14.36;79.46;98358.91;5033928;28;20087;-74
2022/05/29 07:45:01;;;;;;;2.85;1.10;;;;;;;15.32;73.68;98380.19;5036057;28;20402;-74
2022/05/29 07:47:27;;;;;;;3.13;1.10;;;;;;;15.51;70.22;98369.88;5030159;28;20030;-74
2022/05/29 07:49:57;;;;;;;4.55;1.17;;;;;;;15.68;70.73;98375.38;5033285;28;20056;-74
2022/05/29 07:52:23;;;;;;;5.07;1.20;;;;;;;15.80;66.68;98367.97;5029343;28;20018;-75
2022/05/29 07:54:49;;;;;;;5.18;1.20;;;;;;;16.09;65.09;98381.53;5031786;28;20040;-75
2022/05/29 07:57:14;;;;;;;6.43;1.27;;;;;;;16.22;66.11;98386.63;5032622;28;20422;-73
2022/05/29 07:59:39;;;;;;;3.75;1.10;;;;;;;16.42;66.00;98381.44;5030055;28;20079;-75
2022/05/29 08:02:05;;;;;;;4.85;1.20;;;;;;;16.50;62.53;98388.38;5022864;28;20037;-74
2022/05/29 08:04:31;;;;;;;3.65;1.27;;;;;;;16.85;61.39;98387.25;5031688;28;20104;-74
2022/05/29 08:06:56;;;;;;;9.43;1.27;;;;;;;16.70;59.60;98374.19;5032344;28;20030;-69
2022/05/29 08:09:22;;;;;;;7.32;1.10;;;;;;;17.36;57.23;98376.88;5032512;28;20024;-74
2022/05/29 08:11:48;;;;;;;5.22;1.10;;;;;;;18.45;54.23;98379.44;5035145;28;20033;-75
2022/05/29 08:14:13;;;;;;;6.05;1.10;;;;;;;18.53;54.40;98392.63;5034101;28;20399;-73
2022/05/29 08:16:39;;;;;;;6.65;1.10;;;;;;;18.35;56.37;98396.63;5033851;28;20029;-68
2022/05/29 08:19:07;;;;;;;6.35;1.20;;;;;;;18.73;55.75;98386.41;5026690;28;20022;-72
2022/05/29 08:21:32;;;;;;;3.40;0.90;;;;;;;18.96;52.89;98387.94;5030264;28;20467;-73
2022/05/29 08:32:09;;;;;;;9.05;1.20;;;;;;;19.43;47.46;98385.06;5031699;28;20072;-69
2022/05/29 08:34:34;;;;;;;3.55;0.85;;;;;;;20.88;45.06;98386.63;5033650;28;20053;-71
2022/05/29 08:37:00;;;;;;;6.50;1.20;;;;;;;22.50;41.75;98386.63;5033225;28;20124;-72
2022/05/29 08:39:25;;;;;;;6.45;1.00;;;;;;;23.34;40.52;98374.34;5024952;28;20060;-71
2022/05/29 08:41:53;;;;;;;3.53;1.02;;;;;;;23.17;40.08;98380.38;5033912;28;20017;-71
2022/05/29 08:44:42;;;;;;;8.38;1.00;;;;;;;21.94;42.14;98376.13;5028530;28;20087;-72
2022/05/29 08:47:08;;;;;;;6.80;1.10;;;;;;;20.91;41.33;98383.34;5032766;28;20075;-72
2022/05/29 08:49:46;;;;;;;5.32;1.25;;;;;;;20.61;43.04;98365.00;5030691;28;20025;-72
2022/05/29 08:52:14;;;;;;;7.10;1.10;;;;;;;20.92;42.43;98374.78;5030109;28;20041;-72
2022/05/29 08:54:55;;;;;;;3.15;1.02;;;;;;;21.72;43.04;98370.22;5032100;28;20061;-73
2022/05/29 08:57:52;;;;;;;3.85;0.90;;;;;;;24.74;37.71;98363.50;5030437;28;20107;-72
2022/05/29 09:00:36;;;;;;;3.03;1.00;;;;;;;26.61;33.99;98367.72;5032330;28;20148;-72
2022/05/29 09:03:26;;;;;;;3.15;0.90;;;;;;;25.62;33.17;98353.00;5032297;28;20483;-73
2022/05/29 09:05:57;;;;;;;3.17;0.80;;;;;;;23.36;35.73;98345.31;5033975;28;20064;-73
2022/05/29 09:08:22;;;;;;;4.45;1.30;;;;;;;22.65;39.02;98365.53;5027847;28;20029;-73
2022/05/29 09:10:54;;;;;;;3.97;0.97;;;;;;;23.53;38.14;98346.75;5026974;28;20581;-73
2022/05/29 09:13:37;;;;;;;3.92;1.02;;;;;;;24.57;37.27;98362.13;5029898;28;20272;-72
2022/05/29 09:16:25;;;;;;;2.88;0.77;;;;;;;24.03;36.98;98360.91;5026925;28;20557;-72
2022/05/29 09:19:20;;;;;;;4.53;0.77;;;;;;;23.15;37.71;98355.81;5031679;28;20037;-73
2022/05/29 09:22:10;;;;;;;5.90;0.90;;;;;;;22.55;39.40;98360.94;5030517;28;20081;-73
2022/05/29 09:24:47;;;;;;;3.55;0.80;;;;;;;21.42;41.05;98358.31;5035133;28;20022;-74
2022/05/29 09:27:13;;;;;;;3.17;0.77;;;;;;;20.83;43.20;98356.41;5027111;28;20026;-75
2022/05/29 09:29:39;;;;;;;5.75;1.23;;;;;;;20.55;43.26;98354.03;5026398;28;20053;-75
2022/05/29 09:32:09;;;;;;;2.83;1.27;;;;;;;20.55;44.65;98364.22;5031018;28;20057;-74
2022/05/29 09:34:34;;;;;;;2.38;0.70;;;;;;;20.41;45.57;98363.94;5030697;28;20028;-72
2022/05/29 09:37:04;;;;;;;3.38;0.85;;;;;;;19.43;46.51;98360.34;5029567;28;20033;-70
2022/05/29 09:39:35;;;;;;;3.58;1.00;;;;;;;18.70;47.63;98365.84;5028148;28;20021;-72
2022/05/29 09:42:21;;;;;;;4.30;0.85;;;;;;;17.78;51.45;98367.16;5030563;28;20033;-72
2022/05/29 09:45:10;;;;;;;3.47;1.15;;;;;;;17.28;52.96;98374.63;5027074;28;20034;-70
2022/05/29 09:50:58;;;;;;;10.30;3.20;;;;;;;16.64;56.71;98380.66;5030905;28;20043;-69
2022/05/29 09:53:28;;;;;;;13.50;3.85;;;;;;;16.37;58.64;98361.44;5030092;28;20044;-69
2022/05/29 09:56:03;;;;;;;16.08;4.38;;;;;;;16.37;56.86;98369.63;5032413;28;20060;-69
2022/05/29 09:58:38;;;;;;;7.80;2.60;;;;;;;16.51;55.52;98378.31;5022770;28;20033;-69
2022/05/29 10:01:06;;;;;;;7.53;2.58;;;;;;;16.73;56.16;98367.38;5030332;28;20366;-69
2022/05/29 10:03:50;;;;;;;7.22;2.15;;;;;;;17.15;55.87;98361.34;5032852;28;20411;-69
2022/05/29 10:06:22;;;;;;;4.85;1.80;;;;;;;17.48;55.05;98368.53;5029058;28;20059;-69
2022/05/29 10:08:49;;;;;;;4.07;1.20;;;;;;;17.93;55.11;98356.34;5029536;28;20100;-69
2022/05/29 10:11:27;;;;;;;2.53;1.40;;;;;;;18.34;50.57;98356.66;5028023;28;20399;-69
2022/05/29 10:13:53;;;;;;;6.87;1.60;;;;;;;18.49;51.02;98348.50;5023381;28;20037;-69
2022/05/29 10:16:30;;;;;;;2.42;0.98;;;;;;;18.43;50.78;98366.00;5025197;28;20139;-69
2022/05/29 10:18:56;;;;;;;5.78;1.10;;;;;;;17.72;49.46;98358.91;5024936;28;20041;-69
2022/05/29 10:21:24;;;;;;;4.82;0.77;;;;;;;17.67;49.71;98367.06;5023784;28;20036;-69
2022/05/29 10:23:53;;;;;;;2.53;0.90;;;;;;;17.29;51.53;98363.44;5025410;28;20117;-69
2022/05/29 10:26:22;;;;;;;5.88;0.90;;;;;;;16.80;52.35;98360.69;5022613;28;20643;-69
2022/05/29 10:28:47;;;;;;;3.47;0.82;;;;;;;16.52;55.20;98375.31;5027051;28;20041;-69
2022/05/29 10:31:25;;;;;;;5.35;1.00;;;;;;;16.41;53.91;98366.16;5027677;28;20094;-69
2022/05/29 10:34:09;;;;;;;5.88;1.17;;;;;;;16.33;54.90;98363.88;5022884;28;20410;-68
2022/05/29 10:36:37;;;;;;;3.90;0.80;;;;;;;16.07;56.24;98373.56;5017055;28;20079;-69
2022/05/29 10:39:08;;;;;;;7.15;1.42;;;;;;;16.09;56.61;98365.97;5022511;28;20109;-69
2022/05/29 10:41:37;;;;;;;5.05;1.58;;;;;;;15.85;58.36;98380.84;5024022;28;20021;-68
2022/05/29 10:44:03;;;;;;;3.55;0.90;;;;;;;15.69;63.13;98342.44;5023328;28;20645;-70
2022/05/29 10:46:48;;;;;;;3.08;0.90;;;;;;;15.72;59.62;98365.66;5027066;28;20091;-70
2022/05/29 10:49:18;;;;;;;3.83;0.70;;;;;;;15.33;58.74;98363.59;5026697;28;20103;-69
2022/05/29 10:51:43;;;;;;;4.97;0.80;;;;;;;15.03;61.32;98380.19;5039795;28;20037;-69
2022/05/29 10:54:34;;;;;;;4.05;0.90;;;;;;;15.41;69.21;98375.19;5040072;28;20125;-70
2022/05/29 10:57:17;;;;;;;3.45;0.70;;;;;;;16.10;57.74;98377.72;5042851;28;20061;-70
2022/05/29 11:00:01;;;;;;;5.90;0.70;;;;;;;16.37;53.61;98373.22;5046617;28;20092;-69
2022/05/29 11:05:48;;;;;;;2.42;0.77;;;;;;;17.81;49.66;98364.72;5044003;28;20112;-68
2022/05/29 11:08:26;;;;;;;4.28;1.48;;;;;;;18.15;49.28;98365.25;5051865;28;20056;-67
2022/05/29 11:11:10;;;;;;;5.88;1.38;;;;;;;20.06;46.31;98365.63;5040418;28;20032;-67
2022/05/29 11:14:02;;;;;;;4.40;0.80;;;;;;;21.38;42.59;98360.84;5043408;28;20485;-67
2022/05/29 11:16:53;;;;;;;2.60;0.73;;;;;;;21.21;42.10;98355.66;5024868;28;20098;-70
2022/05/29 11:19:56;;;;;;;4.45;0.70;;;;;;;21.54;41.05;98352.50;5035022;28;20096;-68
2022/05/29 11:22:24;;;;;;;1.83;0.75;;;;;;;21.72;39.85;98350.94;5032098;28;20516;-68
2022/05/29 11:25:06;;;;;;;2.70;0.70;;;;;;;21.27;39.76;98333.63;5087897;22;20076;-65
2022/05/29 11:27:46;;;;;;;2.90;0.80;;;;;;;21.13;40.43;98348.00;5015728;28;20056;-64
2022/05/29 11:30:22;;;;;;;4.78;0.80;;;;;;;21.74;39.47;98346.00;5011575;28;20041;-63
2022/05/29 11:33:14;;;;;;;2.35;0.95;;;;;;;20.68;37.84;98333.38;5011176;28;20029;-63
2022/05/29 11:35:39;;;;;;;1.23;0.40;;;;;;;20.17;38.30;98344.47;4976013;28;20069;-63
2022/05/29 11:38:18;;;;;;;3.27;1.27;;;;;;;19.39;39.71;98348.28;4980883;28;20058;-64
2022/05/29 11:40:48;;;;;;;2.23;0.73;;;;;;;19.08;40.81;98338.34;4981598;28;20278;-64
2022/05/29 11:43:43;;;;;;;5.35;0.80;;;;;;;18.31;42.56;98346.19;4994344;28;20294;-64
2022/05/29 11:52:04;;;;;;;2.88;0.70;;;;;;;17.50;40.93;98342.56;4995626;28;19916;-65
2022/05/29 11:54:43;;;;;;;4.00;0.70;;;;;;;17.78;41.83;98348.81;4995485;28;20026;-64
2022/05/29 11:57:22;;;;;;;1.60;0.52;;;;;;;17.92;41.66;98321.84;4981996;28;20476;-63
2022/05/29 11:59:57;;;;;;;2.60;0.60;;;;;;;18.20;42.10;98345.31;4975580;28;20065;-62
2022/05/29 12:02:45;;;;;;;1.63;0.60;;;;;;;18.43;41.10;98333.13;4981884;28;20038;-72
2022/05/29 12:05:16;;;;;;;4.68;0.63;;;;;;;18.86;41.42;98338.53;4992862;28;20026;-72
2022/05/29 12:07:53;;;;;;;3.13;1.05;;;;;;;19.26;38.47;98335.94;4993747;28;20038;-69
2022/05/29 12:10:23;;;;;;;4.22;0.43;;;;;;;19.18;39.04;98327.41;4986344;28;20027;-68
2022/05/29 12:13:03;;;;;;;1.27;0.50;;;;;;;18.97;38.83;98321.88;4987388;28;20391;-66
2022/05/29 12:15:32;;;;;;;4.15;0.60;;;;;;;19.40;37.29;98332.66;4999814;28;20480;-69
2022/05/29 12:18:04;;;;;;;2.65;0.98;;;;;;;19.69;37.12;98331.06;4986483;28;20041;-68
2022/05/29 12:20:49;;;;;;;2.05;0.65;;;;;;;19.46;38.65;98332.38;4980395;28;21212;-68
2022/05/29 12:23:27;;;;;;;2.13;0.60;;;;;;;19.86;40.37;98325.28;4986377;28;20932;-68
2022/05/29 12:26:18;;;;;;;2.00;0.73;;;;;;;20.24;38.35;98328.53;4987019;28;20029;-69
2022/05/29 12:28:58;;;;;;;1.45;0.50;;;;;;;19.93;40.20;98325.00;4983226;28;20030;-70
2022/05/29 12:31:42;;;;;;;1.90;0.93;;;;;;;19.68;42.43;98315.69;4983620;28;20049;-67